createdAt,value
2018-07-13T00:02:19.090Z,5.57
2018-07-13T00:04:47.412Z,6.43
2018-07-13T00:07:15.749Z,6.73
2018-07-13T00:09:44.049Z,6.90
2018-07-13T00:12:12.386Z,6.80
2018-07-13T00:15:20.119Z,7.13
2018-07-13T00:17:48.417Z,8.55
2018-07-13T00:20:16.758Z,7.37
2018-07-13T00:22:45.103Z,7.43
2018-07-13T00:25:13.421Z,7.90
2018-07-13T00:27:41.697Z,7.43
2018-07-13T00:30:09.983Z,7.43
2018-07-13T00:32:38.321Z,7.83
2018-07-13T00:35:06.386Z,7.67
2018-07-13T00:37:34.728Z,8.00
2018-07-13T00:40:03.035Z,8.37
2018-07-13T00:42:31.349Z,7.47
2018-07-13T00:44:59.645Z,7.07
2018-07-13T00:47:27.967Z,7.90
2018-07-13T00:49:56.273Z,7.63
2018-07-13T00:52:24.595Z,8.03
2018-07-13T00:54:52.942Z,7.97
2018-07-13T00:57:21.241Z,7.87
2018-07-13T00:59:49.553Z,7.67
2018-07-13T01:02:17.905Z,8.10
2018-07-13T01:04:46.213Z,8.87
2018-07-13T01:07:14.530Z,7.90
2018-07-13T01:09:42.829Z,7.33
2018-07-13T01:12:11.213Z,8.90
2018-07-13T01:14:39.595Z,8.33
2018-07-13T01:17:07.910Z,8.00
2018-07-13T01:19:36.202Z,8.20
2018-07-13T01:22:05.029Z,8.03
2018-07-13T01:24:33.401Z,8.40
2018-07-13T01:27:01.704Z,8.80
2018-07-13T01:29:29.991Z,8.27
2018-07-13T01:31:58.294Z,7.83
2018-07-13T01:34:26.565Z,8.40
2018-07-13T01:36:54.842Z,8.17
2018-07-13T01:39:23.187Z,7.50
2018-07-13T01:41:51.501Z,7.47
2018-07-13T01:44:19.778Z,8.40
2018-07-13T01:46:48.077Z,7.90
2018-07-13T01:49:16.417Z,8.37
2018-07-13T01:51:44.685Z,8.53
2018-07-13T01:54:12.978Z,8.37
2018-07-13T01:56:41.270Z,7.73
2018-07-13T01:59:09.654Z,7.97
2018-07-13T02:01:37.946Z,8.40
2018-07-13T02:04:06.309Z,7.83
2018-07-13T02:06:34.586Z,8.10
2018-07-13T02:09:02.913Z,9.33
2018-07-13T02:11:31.265Z,8.43
2018-07-13T02:13:59.550Z,8.77
2018-07-13T02:16:27.849Z,8.37
2018-07-13T02:18:56.150Z,8.53
2018-07-13T02:21:24.449Z,8.60
2018-07-13T02:23:52.841Z,7.77
2018-07-13T02:26:21.153Z,8.77
2018-07-13T02:28:49.450Z,8.53
2018-07-13T02:31:17.778Z,8.03
2018-07-13T02:33:46.113Z,8.77
2018-07-13T02:36:14.406Z,8.23
2018-07-13T02:38:42.761Z,8.67
2018-07-13T02:41:11.047Z,8.47
2018-07-13T02:43:39.319Z,8.77
2018-07-13T02:46:07.641Z,7.73
2018-07-13T02:48:35.931Z,8.70
2018-07-13T02:51:04.224Z,9.00
2018-07-13T02:53:32.565Z,8.97
2018-07-13T02:56:00.609Z,9.97
2018-07-13T02:58:28.940Z,8.60
2018-07-13T03:00:57.302Z,8.43
2018-07-13T03:03:25.630Z,9.40
2018-07-13T03:05:53.909Z,8.20
2018-07-13T03:08:22.201Z,8.23
2018-07-13T03:10:50.490Z,8.47
2018-07-13T03:13:18.822Z,8.47
2018-07-13T03:15:47.285Z,8.83
2018-07-13T03:18:15.606Z,9.20
2018-07-13T03:20:43.899Z,9.37
2018-07-13T03:23:12.206Z,8.27
2018-07-13T03:25:40.643Z,8.20
2018-07-13T03:28:08.938Z,7.80
2018-07-13T03:30:37.269Z,8.10
2018-07-13T03:33:05.550Z,8.43
2018-07-13T03:35:33.876Z,8.20
2018-07-13T03:38:03.101Z,8.50
2018-07-13T03:40:31.234Z,7.83
2018-07-13T03:43:00.400Z,7.83
2018-07-13T03:45:28.849Z,9.93
2018-07-13T03:47:56.924Z,9.17
2018-07-13T03:50:24.981Z,8.53
2018-07-13T03:52:53.025Z,8.40
2018-07-13T03:55:21.294Z,8.53
2018-07-13T03:57:49.561Z,8.77
2018-07-13T04:00:17.850Z,9.23
2018-07-13T04:02:46.161Z,8.87
2018-07-13T04:05:14.505Z,7.63
2018-07-13T04:07:42.798Z,7.63
2018-07-13T04:10:11.085Z,7.90
2018-07-13T04:12:39.401Z,7.63
2018-07-13T04:15:07.734Z,8.30
2018-07-13T04:17:36.061Z,7.20
2018-07-13T04:20:04.613Z,8.10
2018-07-13T04:22:32.785Z,9.77
2018-07-13T04:25:01.106Z,8.63
2018-07-13T04:27:29.798Z,8.63
2018-07-13T04:29:58.122Z,8.03
2018-07-13T04:32:26.440Z,8.07
2018-07-13T04:34:54.729Z,7.27
2018-07-13T04:37:23.017Z,7.87
2018-07-13T04:39:51.293Z,8.00
2018-07-13T04:42:19.590Z,7.93
2018-07-13T04:44:47.906Z,8.73
2018-07-13T04:47:16.229Z,8.67
2018-07-13T04:49:44.570Z,8.73
2018-07-13T04:52:13.006Z,8.40
2018-07-13T04:54:41.298Z,8.43
2018-07-13T04:57:09.646Z,9.37
2018-07-13T04:59:38.011Z,8.57
2018-07-13T05:02:06.445Z,8.00
2018-07-13T05:04:34.473Z,8.87
2018-07-13T05:07:02.799Z,8.70
2018-07-13T05:09:31.098Z,8.37
2018-07-13T05:11:59.421Z,8.73
2018-07-13T05:14:27.713Z,8.23
2018-07-13T05:16:56.014Z,7.87
2018-07-13T05:19:24.302Z,8.30
2018-07-13T05:21:52.626Z,8.07
2018-07-13T05:24:20.950Z,7.93
2018-07-13T05:26:48.990Z,8.50
2018-07-13T05:29:17.430Z,8.23
2018-07-13T05:31:45.782Z,8.27
2018-07-13T05:34:14.481Z,7.60
2018-07-13T05:36:42.890Z,8.60
2018-07-13T05:39:12.347Z,8.17
2018-07-13T05:41:40.981Z,8.07
2018-07-13T05:44:09.383Z,7.87
2018-07-13T05:46:37.701Z,6.90
2018-07-13T05:49:06.012Z,8.70
2018-07-13T05:51:34.402Z,7.63
2018-07-13T05:54:02.708Z,6.93
2018-07-13T05:56:31.031Z,8.00
2018-07-13T05:58:59.377Z,6.90
2018-07-13T06:01:27.744Z,6.27
2018-07-13T06:03:56.240Z,6.60
2018-07-13T06:06:24.718Z,6.63
2018-07-13T06:08:53.057Z,6.87
2018-07-13T06:11:21.374Z,6.70
2018-07-13T06:13:49.424Z,5.67
2018-07-13T06:16:17.710Z,5.73
2018-07-13T06:18:46.064Z,6.27
2018-07-13T06:21:14.362Z,5.00
2018-07-13T06:23:42.646Z,6.30
2018-07-13T06:26:10.946Z,6.10
2018-07-13T06:28:39.249Z,5.97
2018-07-13T06:31:07.614Z,5.70
2018-07-13T06:33:35.926Z,5.80
2018-07-13T06:36:04.259Z,5.77
2018-07-13T06:38:32.579Z,6.00
2018-07-13T06:41:00.887Z,6.00
2018-07-13T06:43:29.223Z,5.70
2018-07-13T06:45:57.557Z,6.30
2018-07-13T06:48:25.826Z,5.83
2018-07-13T06:50:54.154Z,6.43
2018-07-13T06:53:22.433Z,6.47
2018-07-13T06:55:50.728Z,5.93
2018-07-13T06:58:30.365Z,5.60
2018-07-13T07:01:00.945Z,4.93
2018-07-13T07:03:29.624Z,6.10
2018-07-13T07:06:06.042Z,5.73
2018-07-13T07:08:34.520Z,5.40
2018-07-13T07:11:03.004Z,4.90
2018-07-13T07:13:35.086Z,4.73
2018-07-13T07:16:04.110Z,4.90
2018-07-13T07:18:32.483Z,4.83
2018-07-13T07:21:04.746Z,5.00
2018-07-13T07:23:38.425Z,4.77
2018-07-13T07:26:07.196Z,5.10
2018-07-13T07:28:36.089Z,5.77
2018-07-13T07:31:04.701Z,4.90
2018-07-13T07:33:33.807Z,5.60
2018-07-13T07:36:02.460Z,5.23
2018-07-13T07:38:31.347Z,4.60
2018-07-13T07:40:59.754Z,5.00
2018-07-13T07:43:29.540Z,5.20
2018-07-13T07:45:57.987Z,5.60
2018-07-13T07:48:30.134Z,4.93
2018-07-13T07:50:58.567Z,4.57
2018-07-13T07:53:26.870Z,4.50
2018-07-13T07:55:55.370Z,4.60
2018-07-13T07:58:23.672Z,4.87
2018-07-13T08:00:53.524Z,5.33
2018-07-13T08:03:21.933Z,4.70
2018-07-13T08:05:50.718Z,4.83
2018-07-13T08:08:19.098Z,4.00
2018-07-13T08:10:47.402Z,4.13
2018-07-13T08:13:15.705Z,3.90
2018-07-13T08:15:44.414Z,4.50
2018-07-13T08:18:12.702Z,4.23
2018-07-13T08:20:45.803Z,4.40
2018-07-13T08:23:14.325Z,4.47
2018-07-13T08:25:44.249Z,4.70
2018-07-13T08:28:12.553Z,4.30
2018-07-13T08:30:44.473Z,4.33
2018-07-13T08:33:12.742Z,4.20
2018-07-13T08:35:41.112Z,3.97
2018-07-13T08:38:09.449Z,4.27
2018-07-13T08:40:37.790Z,3.70
2018-07-13T08:43:06.649Z,3.80
2018-07-13T08:45:34.971Z,3.63
2018-07-13T08:48:03.286Z,4.37
2018-07-13T08:50:31.702Z,4.17
2018-07-13T08:53:00.128Z,3.87
2018-07-13T08:55:28.479Z,3.97
2018-07-13T08:57:56.830Z,3.43
2018-07-13T09:00:25.150Z,3.90
2018-07-13T09:02:53.473Z,3.60
2018-07-13T09:05:21.826Z,3.77
2018-07-13T09:07:50.153Z,3.67
2018-07-13T09:10:18.546Z,3.73
2018-07-13T09:12:46.913Z,3.43
2018-07-13T09:15:15.221Z,3.30
2018-07-13T09:17:43.308Z,3.57
2018-07-13T09:20:12.866Z,3.87
2018-07-13T09:22:41.254Z,3.70
2018-07-13T09:25:10.341Z,4.07
2018-07-13T09:27:38.929Z,4.50
2018-07-13T09:30:07.782Z,3.83
2018-07-13T09:32:36.098Z,3.90
2018-07-13T09:35:04.423Z,3.73
2018-07-13T09:37:36.074Z,3.87
2018-07-13T09:40:05.596Z,3.77
2018-07-13T09:42:35.014Z,3.50
2018-07-13T09:45:03.933Z,3.37
2018-07-13T09:47:32.490Z,3.53
2018-07-13T09:50:01.029Z,3.90
2018-07-13T09:52:29.381Z,3.80
2018-07-13T09:54:57.807Z,3.57
2018-07-13T09:57:26.206Z,3.47
2018-07-13T09:59:54.521Z,3.40
2018-07-13T10:02:22.874Z,3.40
2018-07-13T10:04:51.194Z,3.27
2018-07-13T10:07:19.502Z,3.60
2018-07-13T10:09:47.900Z,3.37
2018-07-13T10:12:16.886Z,4.00
2018-07-13T10:14:45.329Z,4.00
2018-07-13T10:17:14.110Z,3.43
2018-07-13T10:19:42.819Z,3.73
2018-07-13T10:22:13.401Z,3.40
2018-07-13T10:24:43.338Z,3.60
2018-07-13T10:27:12.720Z,3.63
2018-07-13T10:29:44.382Z,3.40
2018-07-13T10:32:15.614Z,3.27
2018-07-13T10:34:45.123Z,3.37
2018-07-13T10:37:13.838Z,3.60
2018-07-13T10:39:42.255Z,3.20
2018-07-13T10:42:10.614Z,3.70
2018-07-13T10:44:39.609Z,3.50
2018-07-13T10:47:07.637Z,3.80
2018-07-13T10:49:35.962Z,3.10
2018-07-13T10:52:04.275Z,3.43
2018-07-13T10:54:32.541Z,3.47
2018-07-13T10:57:00.885Z,3.20
2018-07-13T10:59:29.870Z,3.00
2018-07-13T11:01:57.925Z,3.60
2018-07-13T11:04:26.233Z,3.50
2018-07-13T11:06:54.505Z,3.23
2018-07-13T11:09:22.779Z,2.83
2018-07-13T11:11:50.849Z,3.30
2018-07-13T11:14:18.885Z,3.27
2018-07-13T11:16:48.202Z,3.33
2018-07-13T11:19:16.529Z,2.97
2018-07-13T11:21:45.437Z,2.90
2018-07-13T11:24:13.775Z,2.93
2018-07-13T11:26:42.076Z,3.13
2018-07-13T11:29:10.358Z,3.13
2018-07-13T11:31:38.656Z,3.43
2018-07-13T11:34:07.057Z,3.00
2018-07-13T11:36:35.420Z,3.30
2018-07-13T11:39:04.086Z,3.10
2018-07-13T11:41:32.505Z,3.17
2018-07-13T11:44:00.793Z,3.37
2018-07-13T11:46:29.093Z,3.77
2018-07-13T11:48:58.373Z,2.40
2018-07-13T11:51:26.803Z,2.87
2018-07-13T11:53:55.126Z,2.80
2018-07-13T11:56:23.433Z,3.30
2018-07-13T11:58:51.699Z,3.17
2018-07-13T12:01:19.977Z,2.83
2018-07-13T12:03:48.278Z,2.77
2018-07-13T12:06:16.571Z,2.90
2018-07-13T12:08:44.845Z,2.90
2018-07-13T12:11:13.186Z,3.47
2018-07-13T12:13:41.214Z,3.00
2018-07-13T12:16:09.494Z,3.40
2018-07-13T12:18:37.787Z,3.00
2018-07-13T12:21:06.239Z,2.50
2018-07-13T12:23:34.514Z,2.80
2018-07-13T12:26:02.817Z,2.33
2018-07-13T12:28:31.123Z,2.60
2018-07-13T12:30:59.433Z,2.53
2018-07-13T12:33:27.722Z,2.77
2018-07-13T12:35:56.010Z,2.83
2018-07-13T12:38:24.327Z,2.67
2018-07-13T12:40:52.617Z,2.50
2018-07-13T12:43:20.954Z,3.37
2018-07-13T12:45:49.233Z,2.50
2018-07-13T12:48:17.549Z,2.80
2018-07-13T12:50:45.829Z,2.60
2018-07-13T12:53:14.134Z,2.90
2018-07-13T12:55:42.426Z,2.93
2018-07-13T12:58:10.782Z,2.90
2018-07-13T13:00:39.093Z,3.10
2018-07-13T13:03:07.418Z,3.13
2018-07-13T13:05:35.720Z,3.87
2018-07-13T13:08:04.001Z,2.73
2018-07-13T13:10:32.335Z,3.07
2018-07-13T13:13:00.626Z,2.60
2018-07-13T13:15:28.923Z,2.80
2018-07-13T13:17:57.245Z,2.97
2018-07-13T13:20:25.530Z,2.80
2018-07-13T13:22:53.806Z,3.40
2018-07-13T13:25:22.118Z,3.07
2018-07-13T13:27:50.382Z,3.03
2018-07-13T13:30:18.657Z,3.27
2018-07-13T13:32:46.962Z,3.20
2018-07-13T13:35:15.237Z,3.33
2018-07-13T13:37:43.549Z,3.43
2018-07-13T13:40:11.835Z,3.10
2018-07-13T13:42:40.192Z,3.13
2018-07-13T13:45:08.533Z,3.53
2018-07-13T13:47:36.839Z,2.87
2018-07-13T13:50:05.142Z,3.10
2018-07-13T13:52:33.401Z,3.30
2018-07-13T13:55:01.682Z,3.40
2018-07-13T13:57:29.957Z,3.23
2018-07-13T13:59:58.232Z,3.07
2018-07-13T14:02:26.537Z,3.20
2018-07-13T14:04:54.813Z,3.50
2018-07-13T14:07:23.082Z,3.23
2018-07-13T14:09:51.593Z,3.90
2018-07-13T14:12:19.962Z,3.00
2018-07-13T14:14:48.279Z,3.10
2018-07-13T14:17:16.528Z,2.90
2018-07-13T14:19:44.801Z,3.20
2018-07-13T14:22:13.135Z,3.40
2018-07-13T14:24:41.470Z,3.70
2018-07-13T14:27:09.749Z,3.47
2018-07-13T14:29:38.673Z,3.20
2018-07-13T14:32:06.966Z,3.43
2018-07-13T14:34:35.254Z,3.33
2018-07-13T14:37:03.533Z,3.70
2018-07-13T14:39:31.833Z,3.40
2018-07-13T14:42:00.111Z,3.70
2018-07-13T14:44:28.397Z,3.40
2018-07-13T14:46:58.291Z,3.43
2018-07-13T14:49:26.529Z,3.33
2018-07-13T14:51:54.866Z,3.20
2018-07-13T14:54:23.204Z,3.90
2018-07-13T14:56:51.482Z,3.20
2018-07-13T14:59:19.793Z,3.23
2018-07-13T15:01:48.162Z,3.10
2018-07-13T15:04:16.526Z,3.10
2018-07-13T15:06:44.902Z,3.10
2018-07-13T15:09:13.729Z,3.10
2018-07-13T15:11:42.025Z,3.17
2018-07-13T15:14:10.340Z,2.77
2018-07-13T15:16:38.633Z,2.90
2018-07-13T15:19:06.914Z,2.90
2018-07-13T15:21:35.401Z,2.77
2018-07-13T15:24:03.745Z,3.00
2018-07-13T15:26:32.048Z,2.67
2018-07-13T15:29:00.379Z,2.60
2018-07-13T15:31:28.655Z,3.10
2018-07-13T15:33:56.935Z,3.30
2018-07-13T15:36:25.236Z,3.07
2018-07-13T15:38:53.613Z,3.00
2018-07-13T15:41:21.933Z,3.40
2018-07-13T15:43:50.298Z,3.50
2018-07-13T15:46:18.629Z,3.57
2018-07-13T15:48:47.674Z,4.10
2018-07-13T15:51:16.001Z,4.00
2018-07-13T15:53:44.333Z,3.70
2018-07-13T15:56:12.629Z,3.57
2018-07-13T15:58:40.729Z,3.50
2018-07-13T16:01:08.837Z,3.30
2018-07-13T16:03:37.320Z,3.43
2018-07-13T16:06:05.710Z,3.10
2018-07-13T16:08:34.138Z,3.57
2018-07-13T16:11:02.543Z,3.63
2018-07-13T16:13:30.904Z,3.50
2018-07-13T16:15:59.229Z,3.40
2018-07-13T16:18:27.590Z,3.30
2018-07-13T16:20:55.946Z,4.07
2018-07-13T16:23:24.397Z,3.30
2018-07-13T16:25:53.029Z,3.40
2018-07-13T16:28:21.449Z,3.60
2018-07-13T16:30:49.655Z,4.30
2018-07-13T16:33:18.383Z,4.20
2018-07-13T16:35:46.709Z,3.80
2018-07-13T16:38:15.022Z,3.83
2018-07-13T16:40:43.326Z,3.63
2018-07-13T16:43:11.605Z,3.43
2018-07-13T16:45:39.888Z,3.63
2018-07-13T16:48:08.174Z,3.40
2018-07-13T16:50:36.599Z,3.27
2018-07-13T16:53:04.937Z,3.67
2018-07-13T16:55:33.318Z,3.90
2018-07-13T16:58:01.603Z,3.80
2018-07-13T17:00:29.896Z,3.63
2018-07-13T17:02:58.250Z,3.63
2018-07-13T17:05:26.273Z,3.63
2018-07-13T17:07:54.623Z,3.67
2018-07-13T17:10:23.057Z,3.77
2018-07-13T17:12:51.334Z,3.70
2018-07-13T17:15:19.626Z,4.00
2018-07-13T17:17:47.890Z,3.67
2018-07-13T17:20:16.192Z,3.70
2018-07-13T17:22:44.497Z,4.20
2018-07-13T17:25:12.762Z,4.37
2018-07-13T17:27:41.033Z,4.10
2018-07-13T17:30:09.885Z,4.07
2018-07-13T17:32:38.166Z,3.50
2018-07-13T17:35:06.484Z,3.67
2018-07-13T17:37:34.826Z,4.27
2018-07-13T17:40:03.302Z,3.90
2018-07-13T17:42:31.614Z,4.07
2018-07-13T17:44:59.961Z,4.10
2018-07-13T17:47:28.266Z,3.70
2018-07-13T17:49:56.538Z,3.90
2018-07-13T17:52:25.054Z,4.70
2018-07-13T17:54:53.322Z,3.70
2018-07-13T17:57:21.610Z,4.10
2018-07-13T17:59:50.057Z,4.00
2018-07-13T18:02:18.454Z,4.03
2018-07-13T18:04:46.946Z,3.87
2018-07-13T18:07:15.613Z,3.80
2018-07-13T18:09:43.921Z,4.20
2018-07-13T18:12:12.202Z,4.33
2018-07-13T18:14:40.517Z,4.00
2018-07-13T18:17:09.042Z,3.83
2018-07-13T18:19:37.338Z,3.90
2018-07-13T18:22:07.855Z,3.80
2018-07-13T18:24:36.145Z,3.90
2018-07-13T18:27:04.425Z,3.70
2018-07-13T18:29:32.797Z,4.70
2018-07-13T18:32:01.082Z,3.87
2018-07-13T18:34:29.529Z,3.80
2018-07-13T18:36:57.861Z,3.80
2018-07-13T18:39:26.137Z,3.70
2018-07-13T18:41:54.423Z,3.40
2018-07-13T18:44:22.738Z,3.80
2018-07-13T18:46:50.751Z,3.23
2018-07-13T18:49:19.050Z,3.83
2018-07-13T18:51:47.341Z,3.53
2018-07-13T18:54:15.666Z,3.40
2018-07-13T18:56:44.001Z,3.57
2018-07-13T18:59:12.355Z,3.20
2018-07-13T19:01:40.633Z,3.13
2018-07-13T19:04:08.913Z,3.20
2018-07-13T19:06:37.227Z,3.27
2018-07-13T19:09:06.409Z,3.33
2018-07-13T19:11:34.694Z,4.40
2018-07-13T19:14:02.988Z,3.30
2018-07-13T19:16:31.332Z,3.90
2018-07-13T19:18:59.414Z,3.87
2018-07-13T19:21:27.786Z,3.50
2018-07-13T19:23:55.854Z,3.27
2018-07-13T19:26:24.164Z,3.60
2018-07-13T19:28:52.454Z,3.40
2018-07-13T19:31:20.740Z,3.50
2018-07-13T19:33:49.053Z,4.03
2018-07-13T19:36:17.343Z,3.50
2018-07-13T19:38:45.662Z,3.13
2018-07-13T19:41:13.946Z,3.40
2018-07-13T19:43:42.233Z,3.87
2018-07-13T19:46:10.557Z,3.30
2018-07-13T19:48:38.837Z,3.20
2018-07-13T19:51:07.133Z,4.07
2018-07-13T19:53:35.473Z,3.70
2018-07-13T19:56:03.849Z,3.70
2018-07-13T19:58:38.742Z,3.90
2018-07-13T20:01:07.050Z,3.90
2018-07-13T20:03:35.357Z,3.90
2018-07-13T20:06:03.689Z,3.40
2018-07-13T20:08:32.094Z,3.30
2018-07-13T20:11:00.499Z,3.50
2018-07-13T20:13:28.867Z,4.47
2018-07-13T20:41:50.014Z,4.00
2018-07-13T20:44:18.361Z,3.57
2018-07-13T20:46:47.012Z,3.70
2018-07-13T20:49:15.325Z,3.97
2018-07-13T20:51:43.593Z,4.00
2018-07-13T20:54:11.911Z,3.93
2018-07-13T20:56:39.992Z,4.15
2018-07-13T20:59:08.244Z,4.40
2018-07-13T21:01:36.564Z,3.90
2018-07-13T21:04:04.908Z,4.30
2018-07-13T21:06:33.252Z,4.03
2018-07-13T21:09:01.499Z,3.77
2018-07-13T21:11:30.133Z,4.40
2018-07-13T21:13:58.412Z,4.20
2018-07-13T21:16:26.656Z,3.77
2018-07-13T21:18:55.274Z,4.30
2018-07-13T21:21:23.531Z,4.70
2018-07-13T21:23:52.073Z,4.37
2018-07-13T21:26:21.332Z,4.97
2018-07-13T21:28:50.065Z,5.03
2018-07-13T21:31:18.316Z,4.53
2018-07-13T21:33:46.596Z,4.83
2018-07-13T21:36:14.898Z,4.60
2018-07-13T21:38:43.202Z,4.62
2018-07-13T21:41:11.744Z,4.00
2018-07-13T21:43:40.250Z,4.20
2018-07-13T21:46:08.536Z,4.33
2018-07-13T21:48:36.959Z,4.43
2018-07-13T21:51:05.232Z,4.40
2018-07-13T21:53:33.473Z,4.73
2018-07-13T21:56:02.040Z,4.80
2018-07-13T21:58:30.308Z,4.83
2018-07-13T22:00:58.561Z,4.33
2018-07-13T22:03:27.323Z,4.87
2018-07-13T22:05:55.579Z,4.60
2018-07-13T22:08:23.824Z,4.80
2018-07-13T22:10:52.134Z,4.93
2018-07-13T22:13:20.455Z,4.90
2018-07-13T22:15:48.685Z,4.77
2018-07-13T22:18:16.986Z,4.60
2018-07-13T22:20:45.268Z,4.77
2018-07-13T22:23:13.526Z,4.37
2018-07-13T22:25:41.930Z,5.10
2018-07-13T22:28:10.169Z,4.90
2018-07-13T22:30:38.416Z,4.83
2018-07-13T22:33:06.817Z,4.77
2018-07-13T22:35:35.100Z,5.10
2018-07-13T22:38:03.097Z,4.73
2018-07-13T22:40:31.401Z,5.03
2018-07-13T22:42:59.665Z,5.75
2018-07-13T22:45:27.993Z,5.77
2018-07-13T22:47:56.028Z,5.20
2018-07-13T22:50:24.277Z,5.07
2018-07-13T22:52:52.548Z,5.30
2018-07-13T22:55:20.913Z,5.80
2018-07-13T22:57:49.180Z,5.37
2018-07-13T23:00:17.429Z,5.40
2018-07-13T23:02:45.700Z,5.17
2018-07-13T23:05:13.954Z,5.97
2018-07-13T23:07:42.190Z,6.00
2018-07-13T23:10:10.637Z,6.20
2018-07-13T23:12:38.920Z,4.63
2018-07-13T23:15:07.184Z,6.03
2018-07-13T23:17:35.581Z,6.40
2018-07-13T23:20:03.877Z,5.20
2018-07-13T23:22:32.136Z,7.30
2018-07-13T23:25:00.772Z,5.27
2018-07-13T23:27:29.045Z,5.20
2018-07-13T23:29:57.301Z,6.00
2018-07-13T23:32:25.599Z,5.77
2018-07-13T23:34:53.868Z,6.20
2018-07-13T23:37:22.125Z,5.57
2018-07-13T23:39:50.148Z,5.60
2018-07-13T23:42:18.424Z,5.83
2018-07-13T23:44:46.685Z,6.00
2018-07-13T23:47:17.892Z,6.30
2018-07-13T23:49:46.154Z,6.27
2018-07-13T23:52:14.417Z,6.40
2018-07-13T23:54:42.704Z,5.50
2018-07-13T23:57:10.961Z,5.50
2018-07-13T23:59:39.207Z,6.30
